Time;durP1;ratioP1;P1;durP2;ratioP2;P2;SDS_P1;SDS_P2;PMS_P1;PMS_P2;Temp;Humidity;BMP_temperature;BMP_pressure;BME280_temperature;BME280_humidity;BME280_pressure;Samples;Min_cycle;Max_cycle;Signal;HPM_P1;HPM_P2
2023/02/01 00:01:28;;;;;;;6.53;4.45;;;;;;;0.94;63.48;94889.19;5049407;28;20029;-73
2023/02/01 00:03:53;;;;;;;8.65;6.47;;;;;;;0.93;64.10;94881.59;5046194;28;20039;-73
2023/02/01 00:06:19;;;;;;;8.60;6.13;;;;;;;0.83;63.83;94881.97;5047939;28;20021;-73
2023/02/01 00:08:44;;;;;;;9.23;5.20;;;;;;;0.98;63.18;94882.22;5029548;28;20029;-73
2023/02/01 00:11:10;;;;;;;8.57;6.00;;;;;;;0.92;63.61;94878.22;5047569;28;20033;-73
2023/02/01 00:13:39;;;;;;;6.72;4.72;;;;;;;0.98;63.71;94885.59;5046141;28;20025;-73
2023/02/01 00:16:06;;;;;;;6.63;4.60;;;;;;;0.88;63.56;94869.81;5030662;28;20496;-73
2023/02/01 00:18:32;;;;;;;6.85;5.00;;;;;;;1.03;62.84;94878.56;5045102;28;20040;-73
2023/02/01 00:20:57;;;;;;;6.75;5.28;;;;;;;0.95;63.81;94884.88;5030548;28;20092;-73
2023/02/01 00:23:23;;;;;;;6.10;4.70;;;;;;;0.85;63.87;94882.75;5045012;28;20479;-73
2023/02/01 00:25:48;;;;;;;6.68;4.50;;;;;;;0.94;62.99;94885.78;5049012;28;20063;-73
2023/02/01 00:28:13;;;;;;;5.72;4.20;;;;;;;0.80;63.24;94865.94;5047463;28;20044;-73
2023/02/01 00:30:39;;;;;;;5.90;4.65;;;;;;;0.85;63.27;94874.25;5048376;28;20029;-73
2023/02/01 00:33:04;;;;;;;6.65;4.78;;;;;;;0.74;63.78;94881.56;5046700;28;20033;-73
2023/02/01 00:35:30;;;;;;;4.75;4.10;;;;;;;0.68;63.67;94887.75;5043609;28;20041;-73
2023/02/01 00:37:58;;;;;;;5.78;4.20;;;;;;;0.62;64.05;94870.13;5029645;28;20037;-73
2023/02/01 00:40:23;;;;;;;5.10;4.25;;;;;;;0.76;62.60;94870.38;5045220;28;20364;-73
2023/02/01 00:42:49;;;;;;;6.07;4.63;;;;;;;0.73;63.23;94874.78;5045110;28;20033;-74
2023/02/01 00:45:14;;;;;;;8.20;4.57;;;;;;;0.82;62.87;94854.75;5047157;28;20033;-73
2023/02/01 00:47:40;;;;;;;9.10;4.95;;;;;;;0.81;63.77;94860.78;5045966;28;20061;-73
2023/02/01 00:50:05;;;;;;;6.82;4.50;;;;;;;0.89;62.60;94861.25;5030120;28;20049;-73
2023/02/01 00:52:31;;;;;;;6.07;5.38;;;;;;;0.75;62.69;94853.34;5044534;28;20025;-73
2023/02/01 00:54:56;;;;;;;8.65;4.57;;;;;;;0.79;62.60;94862.56;5047113;28;20080;-73
2023/02/01 00:57:22;;;;;;;6.00;3.97;;;;;;;0.81;61.89;94862.50;5046764;28;20514;-73
2023/02/01 00:59:47;;;;;;;5.65;4.28;;;;;;;0.79;61.58;94864.28;5030160;28;20537;-73
2023/02/01 01:02:14;;;;;;;5.75;4.10;;;;;;;0.73;61.73;94864.56;5044940;28;20033;-73
2023/02/01 01:04:40;;;;;;;6.20;4.00;;;;;;;0.73;60.67;94869.69;5047658;28;20112;-73
2023/02/01 01:07:05;;;;;;;4.72;3.40;;;;;;;0.76;60.20;94861.88;5045899;28;20048;-73
2023/02/01 01:09:30;;;;;;;5.43;3.72;;;;;;;0.73;60.04;94856.88;5044845;28;20492;-73
2023/02/01 01:11:56;;;;;;;5.80;3.75;;;;;;;0.56;60.24;94853.34;5044881;28;20033;-73
2023/02/01 01:14:21;;;;;;;5.40;3.50;;;;;;;0.61;60.99;94859.09;5009344;28;20040;-73
2023/02/01 01:16:47;;;;;;;5.93;3.35;;;;;;;0.59;60.24;94857.50;5043141;28;20391;-72
2023/02/01 01:19:12;;;;;;;4.65;3.50;;;;;;;0.52;60.73;94863.75;5041806;28;20415;-73
2023/02/01 01:21:38;;;;;;;5.13;3.17;;;;;;;0.53;59.86;94855.16;5047315;28;20040;-73
2023/02/01 01:24:03;;;;;;;3.97;3.35;;;;;;;0.46;60.70;94857.16;5028246;28;20100;-73
2023/02/01 01:26:29;;;;;;;5.85;3.33;;;;;;;0.48;60.67;94854.56;5047549;28;20051;-73
2023/02/01 01:28:56;;;;;;;6.75;3.50;;;;;;;0.57;60.10;94856.72;5022270;28;20029;-73
2023/02/01 01:31:21;;;;;;;5.13;3.25;;;;;;;0.50;60.57;94862.97;4997249;28;20037;-73
2023/02/01 01:33:54;;;;;;;5.72;3.50;;;;;;;0.45;59.74;94845.28;5013413;28;20029;-73
2023/02/01 01:36:20;;;;;;;4.53;3.30;;;;;;;0.50;59.67;94861.25;5031030;28;20040;-73
2023/02/01 01:38:45;;;;;;;4.78;3.40;;;;;;;0.41;60.17;94859.91;5011036;28;20415;-73
2023/02/01 01:41:18;;;;;;;4.57;3.38;;;;;;;0.67;59.07;94873.31;4997074;28;20030;-73
2023/02/01 01:43:47;;;;;;;5.35;3.30;;;;;;;0.55;59.47;94876.41;5046267;28;20030;-73
2023/02/01 01:46:19;;;;;;;5.60;3.30;;;;;;;0.57;59.82;94870.31;5029703;28;20029;-73
2023/02/01 01:48:44;;;;;;;4.53;3.22;;;;;;;0.57;58.96;94879.72;5029737;28;20040;-73
2023/02/01 01:51:10;;;;;;;5.07;3.35;;;;;;;0.51;59.00;94875.69;5041473;28;20036;-73
2023/02/01 01:53:40;;;;;;;5.53;3.38;;;;;;;0.60;59.36;94879.59;5034968;28;20041;-73
2023/02/01 01:56:05;;;;;;;6.72;3.33;;;;;;;0.72;57.44;94873.94;5028753;28;20056;-73
2023/02/01 01:58:32;;;;;;;5.90;3.47;;;;;;;0.68;57.76;94874.97;5029949;28;20018;-73
2023/02/01 02:00:57;;;;;;;4.38;2.83;;;;;;;0.69;57.11;94880.91;5013198;28;20034;-73
2023/02/01 02:03:33;;;;;;;4.35;2.75;;;;;;;0.62;57.25;94867.56;5030642;28;20032;-73
2023/02/01 02:05:58;;;;;;;5.63;2.80;;;;;;;0.58;57.44;94873.69;4998795;28;20049;-73
2023/02/01 02:08:24;;;;;;;3.47;2.72;;;;;;;0.69;57.51;94874.06;5032175;28;20510;-73
2023/02/01 02:10:59;;;;;;;5.00;2.83;;;;;;;0.63;57.96;94874.34;5012997;28;21432;-73
2023/02/01 02:13:31;;;;;;;5.30;2.92;;;;;;;0.65;57.74;94863.16;4999082;28;20068;-73
2023/02/01 02:16:02;;;;;;;4.57;2.90;;;;;;;0.63;57.61;94859.00;5013675;28;20415;-73
2023/02/01 02:18:41;;;;;;;;;;;;;;;0.59;57.82;94862.59;5037273;28;20069;-73
2023/02/01 02:21:33;;;;;;;4.30;3.00;;;;;;;0.42;58.18;94850.53;5029645;28;19921;-73
2023/02/01 02:24:09;;;;;;;4.38;3.03;;;;;;;0.15;57.85;94825.25;5026591;28;20033;-73
2023/02/01 02:27:22;;;;;;;5.97;3.10;;;;;;;0.13;58.70;94838.97;5030210;28;20136;-73
2023/02/01 02:30:06;;;;;;;5.85;3.70;;;;;;;0.21;58.25;94847.97;5029656;28;20327;-73
2023/02/01 02:33:22;;;;;;;7.55;4.30;;;;;;;0.15;58.23;94849.97;5031867;28;20029;-73
2023/02/01 02:35:54;;;;;;;9.73;4.93;;;;;;;0.12;59.01;94850.94;5037800;28;20041;-73
2023/02/01 02:38:34;;;;;;;3.97;2.50;;;;;;;0.07;58.15;94857.94;5035557;28;20069;-73
2023/02/01 02:47:27;;;;;;;6.72;3.88;;;;;;;-0.20;59.38;94852.22;5029851;28;20084;-73
2023/02/01 03:04:23;;;;;;;4.38;2.38;;;;;;;-0.17;59.46;94847.00;5015236;28;20036;-73
2023/02/01 03:06:48;;;;;;;3.90;2.53;;;;;;;-0.31;59.62;94829.66;5012777;28;20034;-73
2023/02/01 03:09:32;;;;;;;4.47;2.75;;;;;;;-0.12;58.99;94850.19;5014430;28;20034;-73
2023/02/01 03:14:46;;;;;;;3.42;2.10;;;;;;;-0.25;58.92;94849.88;5032490;28;20067;-73
2023/02/01 03:17:14;;;;;;;4.22;2.10;;;;;;;-0.08;58.50;94874.72;5016378;28;20040;-72
2023/02/01 03:19:44;;;;;;;3.88;2.10;;;;;;;-0.09;58.35;94873.06;5052127;28;20048;-73
2023/02/01 03:22:15;;;;;;;4.90;2.22;;;;;;;-0.05;57.40;94876.34;5052309;28;20502;-73
2023/02/01 03:24:40;;;;;;;5.00;2.30;;;;;;;0.12;56.94;94878.19;5050673;28;20086;-73
2023/02/01 03:27:13;;;;;;;3.28;2.03;;;;;;;-0.08;57.20;94872.19;5053302;28;20053;-73
2023/02/01 03:30:05;;;;;;;3.97;1.98;;;;;;;0.02;57.59;94882.00;5035640;28;20032;-72
2023/02/01 03:32:58;;;;;;;5.88;3.00;;;;;;;0.14;57.46;94877.25;5052173;28;20033;-73
2023/02/01 03:35:16;;;;;;;3.38;2.05;;;;;;;0.06;57.30;94883.56;5036132;28;20487;-73
2023/02/01 03:37:42;;;;;;;4.03;2.50;;;;;;;0.09;57.82;94883.44;5033656;28;20052;-73
2023/02/01 03:40:08;;;;;;;8.88;3.45;;;;;;;0.12;57.12;94880.75;5035213;28;20044;-73
2023/02/01 03:42:38;;;;;;;4.57;2.20;;;;;;;0.28;57.35;94896.28;5013068;28;20037;-72
2023/02/01 03:45:33;;;;;;;5.68;3.20;;;;;;;0.25;57.85;94894.66;5031848;28;20483;-73
2023/02/01 03:48:00;;;;;;;3.20;2.67;;;;;;;0.14;58.05;94899.38;5033514;28;20532;-73
2023/02/01 03:50:25;;;;;;;3.92;2.22;;;;;;;0.18;58.45;94893.28;5031742;28;20017;-73
2023/02/01 03:52:51;;;;;;;3.90;2.08;;;;;;;0.19;57.74;94871.94;5016227;28;20091;-72
2023/02/01 03:55:20;;;;;;;5.63;2.08;;;;;;;0.22;57.67;94872.66;5046950;28;20032;-74
2023/02/01 03:58:12;;;;;;;6.00;2.05;;;;;;;0.36;57.81;94877.19;5048214;28;20056;-73
2023/02/01 04:00:38;;;;;;;4.38;2.20;;;;;;;0.24;58.08;94880.25;5045242;28;20049;-73
2023/02/01 04:03:06;;;;;;;4.35;2.83;;;;;;;0.39;58.25;94881.31;5043077;28;20056;-73
2023/02/01 04:05:32;;;;;;;3.95;2.30;;;;;;;0.40;57.35;94883.00;5049522;28;20036;-73
2023/02/01 04:07:58;;;;;;;5.95;3.08;;;;;;;0.25;58.02;94853.78;5031495;28;20061;-73
2023/02/01 04:10:23;;;;;;;4.25;3.10;;;;;;;0.39;58.20;94884.72;5042766;28;20029;-72
2023/02/01 04:12:49;;;;;;;4.72;3.42;;;;;;;0.36;57.95;94877.19;5034875;28;20036;-73
2023/02/01 04:15:14;;;;;;;5.47;3.13;;;;;;;0.34;57.64;94873.84;5051644;28;20435;-73
2023/02/01 04:17:40;;;;;;;4.28;2.50;;;;;;;0.36;57.71;94881.44;5034670;28;20041;-73
2023/02/01 04:20:05;;;;;;;4.57;3.50;;;;;;;0.27;58.77;94866.50;5051032;28;20033;-73
2023/02/01 04:22:31;;;;;;;6.43;3.85;;;;;;;0.40;58.44;94888.09;5049943;28;20037;-73
2023/02/01 04:24:56;;;;;;;4.47;3.25;;;;;;;0.48;57.88;94890.34;5030837;28;20581;-73
2023/02/01 04:27:22;;;;;;;10.00;5.07;;;;;;;0.47;58.26;94878.44;5031150;28;20029;-73
2023/02/01 04:29:49;;;;;;;4.15;2.88;;;;;;;0.41;57.66;94865.03;5014292;28;20025;-71
2023/02/01 04:32:15;;;;;;;5.22;3.10;;;;;;;0.48;58.13;94875.00;5033927;28;20034;-71
2023/02/01 04:34:41;;;;;;;7.63;4.22;;;;;;;0.53;58.67;94890.97;5031750;28;20479;-71
2023/02/01 04:37:07;;;;;;;7.07;3.50;;;;;;;0.49;58.69;94902.22;5031033;28;20045;-71
2023/02/01 04:39:33;;;;;;;8.00;4.50;;;;;;;0.62;59.29;94898.25;5035203;28;20429;-72
2023/02/01 04:41:58;;;;;;;7.63;3.13;;;;;;;0.62;58.73;94888.84;5030952;28;20033;-73
2023/02/01 04:44:24;;;;;;;4.22;2.70;;;;;;;0.59;58.76;94904.34;5031841;28;20484;-73
2023/02/01 04:46:49;;;;;;;5.97;2.97;;;;;;;0.66;58.62;94892.09;5046329;28;20033;-73
2023/02/01 04:49:15;;;;;;;34.95;14.10;;;;;;;0.55;59.36;94891.72;5033910;28;20029;-73
2023/02/01 04:51:40;;;;;;;14.80;5.32;;;;;;;0.62;59.32;94882.91;5046070;28;20066;-73
2023/02/01 04:54:06;;;;;;;7.88;4.55;;;;;;;0.55;59.71;94886.63;5017387;28;20033;-72
2023/02/01 04:56:31;;;;;;;8.63;5.40;;;;;;;0.39;60.56;94869.41;5033823;28;20052;-73
2023/02/01 04:58:57;;;;;;;7.50;4.60;;;;;;;0.57;59.45;94890.78;5050290;28;20029;-73
2023/02/01 05:01:24;;;;;;;6.40;3.50;;;;;;;0.65;59.61;94888.72;5036015;28;20030;-73
2023/02/01 05:03:49;;;;;;;4.63;3.55;;;;;;;0.63;59.78;94893.06;5025488;28;20029;-73
2023/02/01 05:06:15;;;;;;;6.30;3.70;;;;;;;0.73;60.17;94900.38;5027749;28;20051;-72
2023/02/01 05:08:40;;;;;;;6.38;3.30;;;;;;;0.62;60.46;94923.81;5032544;28;20032;-73
2023/02/01 05:11:06;;;;;;;5.78;3.58;;;;;;;0.59;60.58;94917.13;5035484;28;20041;-72
2023/02/01 05:13:49;;;;;;;5.43;3.50;;;;;;;0.54;61.27;94915.66;5033489;28;20036;-73
2023/02/01 05:16:15;;;;;;;5.35;3.60;;;;;;;0.60;62.11;94917.94;5050102;28;20091;-73
2023/02/01 05:18:40;;;;;;;5.65;3.42;;;;;;;0.61;61.99;94928.13;5049909;28;20029;-73
2023/02/01 05:21:06;;;;;;;32.47;12.82;;;;;;;0.63;62.13;94925.47;5033393;28;20518;-73
2023/02/01 05:23:31;;;;;;;6.03;4.03;;;;;;;0.73;61.12;94921.66;5034384;28;20400;-72
2023/02/01 05:26:00;;;;;;;5.63;3.03;;;;;;;0.68;61.48;94928.69;5042850;28;20408;-73
2023/02/01 05:28:26;;;;;;;5.25;3.20;;;;;;;0.80;61.03;94924.75;5033279;28;20088;-73
2023/02/01 05:30:52;;;;;;;6.10;3.78;;;;;;;0.59;61.81;94929.06;5043727;28;20037;-73
2023/02/01 05:33:17;;;;;;;7.78;4.20;;;;;;;0.73;61.59;94919.09;5045339;28;20493;-72
2023/02/01 05:35:43;;;;;;;5.30;3.47;;;;;;;0.76;61.13;94918.13;5034318;28;20025;-72
2023/02/01 05:38:08;;;;;;;5.93;3.83;;;;;;;0.83;61.15;94928.00;5032155;28;20075;-72
2023/02/01 05:40:34;;;;;;;7.72;3.50;;;;;;;0.82;61.09;94918.69;5043882;28;20017;-72
2023/02/01 05:42:59;;;;;;;5.55;3.95;;;;;;;0.85;61.30;94916.00;5029665;28;20084;-71
2023/02/01 05:45:25;;;;;;;6.82;3.97;;;;;;;0.84;60.68;94914.34;5030905;28;20030;-71
2023/02/01 05:47:50;;;;;;;5.38;4.40;;;;;;;0.96;61.31;94918.09;5029903;28;20419;-73
2023/02/01 05:50:16;;;;;;;10.52;4.20;;;;;;;0.88;61.22;94926.09;5028185;28;20164;-72
2023/02/01 05:52:42;;;;;;;8.98;3.75;;;;;;;0.84;61.61;94918.63;5047321;28;20037;-72
2023/02/01 05:55:07;;;;;;;6.32;4.15;;;;;;;0.99;60.97;94924.81;5049777;28;20398;-72
2023/02/01 05:57:33;;;;;;;8.35;4.00;;;;;;;0.91;61.15;94914.06;5061445;28;20037;-72
2023/02/01 05:59:58;;;;;;;7.80;4.15;;;;;;;0.99;60.33;94924.81;5038093;28;20495;-73
2023/02/01 06:02:24;;;;;;;7.80;4.68;;;;;;;1.04;60.12;94920.31;5019787;28;20034;-72
2023/02/01 06:04:50;;;;;;;5.40;4.00;;;;;;;1.03;60.20;94921.19;5046629;28;20017;-72
2023/02/01 06:07:15;;;;;;;7.47;5.32;;;;;;;1.07;60.17;94926.13;5045712;28;20083;-72
2023/02/01 06:09:41;;;;;;;12.40;5.20;;;;;;;1.04;60.32;94922.88;5018274;28;20028;-72
2023/02/01 06:12:06;;;;;;;7.22;4.53;;;;;;;1.06;59.55;94924.47;5047772;28;20041;-72
2023/02/01 06:14:32;;;;;;;8.77;4.18;;;;;;;1.05;59.19;94909.19;5062823;28;20512;-72
2023/02/01 06:16:57;;;;;;;6.35;3.80;;;;;;;1.13;59.27;94926.75;5055368;28;20033;-72
2023/02/01 06:19:23;;;;;;;5.15;3.15;;;;;;;1.16;58.53;94912.09;5031641;28;20028;-72
2023/02/01 06:21:48;;;;;;;3.90;2.83;;;;;;;1.34;57.70;94926.63;5045613;28;20556;-72
2023/02/01 06:24:14;;;;;;;7.72;3.60;;;;;;;1.16;57.93;94909.53;5067290;28;20536;-73
2023/02/01 06:26:42;;;;;;;8.55;4.47;;;;;;;1.27;58.32;94925.25;5033292;28;20126;-72
2023/02/01 06:29:09;;;;;;;5.00;3.50;;;;;;;1.15;58.36;94938.59;5030857;28;20170;-73
2023/02/01 06:31:35;;;;;;;4.22;2.63;;;;;;;1.33;57.22;94922.41;5048477;28;20078;-73
2023/02/01 06:34:00;;;;;;;4.67;2.90;;;;;;;1.22;57.61;94929.72;5041712;28;20037;-72
2023/02/01 06:36:25;;;;;;;5.40;2.50;;;;;;;1.20;57.48;94923.88;5010888;28;20041;-72
2023/02/01 06:38:51;;;;;;;3.75;2.45;;;;;;;1.33;57.47;94922.41;5012630;28;20037;-73
2023/02/01 06:41:17;;;;;;;5.45;3.13;;;;;;;1.36;57.81;94913.75;5046559;28;20045;-73
2023/02/01 06:43:43;;;;;;;5.85;3.05;;;;;;;1.34;56.98;94913.00;5049297;28;20036;-72
2023/02/01 06:46:11;;;;;;;7.45;4.25;;;;;;;1.50;56.98;94928.47;5036454;28;20075;-72
2023/02/01 06:48:36;;;;;;;5.15;3.03;;;;;;;1.49;57.18;94927.66;5052837;28;20033;-72
2023/02/01 06:51:02;;;;;;;7.10;3.90;;;;;;;1.54;56.33;94930.03;5052849;28;20106;-70
2023/02/01 06:53:27;;;;;;;5.45;3.72;;;;;;;1.35;56.17;94909.53;5053968;28;20021;-70
2023/02/01 06:56:00;;;;;;;4.45;3.05;;;;;;;1.45;56.40;94932.97;5036024;28;20051;-71
2023/02/01 06:58:30;;;;;;;8.57;3.60;;;;;;;1.58;56.94;94954.56;5036561;28;20037;-71
2023/02/01 07:00:55;;;;;;;5.93;2.67;;;;;;;1.61;55.90;94943.38;5036131;28;20495;-70
2023/02/01 07:03:21;;;;;;;3.80;2.20;;;;;;;1.58;56.12;94956.31;5034693;28;20029;-70
2023/02/01 07:05:46;;;;;;;5.80;2.28;;;;;;;1.56;56.10;94948.69;5053514;28;20388;-71
2023/02/01 07:08:11;;;;;;;4.43;2.10;;;;;;;1.74;55.51;94952.97;5052393;28;20021;-71
2023/02/01 07:10:37;;;;;;;7.53;2.35;;;;;;;1.65;55.56;94940.59;5052398;28;20028;-72
2023/02/01 07:13:02;;;;;;;4.72;2.63;;;;;;;1.78;55.72;94964.75;5051790;28;20033;-72
2023/02/01 07:15:31;;;;;;;8.80;3.00;;;;;;;1.83;55.22;94966.25;5034564;28;20029;-72
2023/02/01 07:17:56;;;;;;;5.38;2.30;;;;;;;1.77;55.55;94950.28;5033563;28;20525;-71
2023/02/01 07:20:22;;;;;;;4.78;3.05;;;;;;;1.83;55.69;94968.81;5037281;28;20036;-72
2023/02/01 07:22:47;;;;;;;4.75;2.80;;;;;;;1.88;55.32;94969.44;5036011;28;20416;-71
2023/02/01 07:25:13;;;;;;;4.45;2.28;;;;;;;1.84;55.61;94978.16;5038911;28;20509;-72
2023/02/01 07:27:38;;;;;;;4.57;1.83;;;;;;;1.76;55.71;94975.97;5072404;28;20405;-71
2023/02/01 07:30:04;;;;;;;3.50;2.50;;;;;;;1.77;55.01;94975.06;5068034;28;20087;-72
2023/02/01 07:32:30;;;;;;;4.13;2.25;;;;;;;1.88;55.52;94989.94;5059321;28;20032;-72
2023/02/01 07:34:56;;;;;;;4.10;2.38;;;;;;;1.86;54.64;94984.06;5055695;28;20103;-72
2023/02/01 07:37:21;;;;;;;7.88;2.47;;;;;;;1.98;54.47;94986.91;5053580;28;20029;-72
2023/02/01 07:39:47;;;;;;;5.07;2.20;;;;;;;2.05;53.70;94979.75;5047723;28;20025;-71
2023/02/01 07:42:12;;;;;;;3.85;2.15;;;;;;;1.95;54.21;94970.81;5043174;28;20054;-71
2023/02/01 07:44:38;;;;;;;6.22;2.40;;;;;;;1.91;54.51;94984.69;5049387;28;20028;-72
2023/02/01 07:47:03;;;;;;;15.02;8.43;;;;;;;2.07;54.02;94993.31;5041410;28;20040;-72
2023/02/01 07:49:29;;;;;;;7.88;3.95;;;;;;;2.03;54.08;95002.03;5026053;28;20040;-71
2023/02/01 07:51:54;;;;;;;22.00;11.05;;;;;;;2.16;54.76;95008.25;5019214;28;20034;-73
2023/02/01 07:54:19;;;;;;;19.42;11.10;;;;;;;2.01;55.41;94991.06;5040511;28;20037;-72
2023/02/01 07:56:45;;;;;;;14.48;7.03;;;;;;;2.16;54.36;95018.50;5042468;28;20044;-72
2023/02/01 07:59:11;;;;;;;9.60;6.38;;;;;;;2.20;54.25;95002.09;5043150;28;20465;-72
2023/02/01 08:01:37;;;;;;;7.20;3.42;;;;;;;2.11;53.99;94999.94;5051608;28;20095;-71
2023/02/01 08:04:03;;;;;;;9.57;5.00;;;;;;;2.04;53.89;95000.34;5044227;28;20025;-71
2023/02/01 08:06:31;;;;;;;13.43;6.35;;;;;;;2.27;53.13;95017.19;5017389;28;20037;-71
2023/02/01 08:08:57;;;;;;;16.30;9.35;;;;;;;2.38;53.09;95015.78;5031639;28;20243;-72
2023/02/01 08:11:22;;;;;;;9.23;4.82;;;;;;;2.34;52.71;95000.59;5031490;28;20045;-72
2023/02/01 08:13:48;;;;;;;10.02;4.97;;;;;;;2.45;53.74;95006.03;5032624;28;20022;-72
2023/02/01 08:16:14;;;;;;;4.15;2.88;;;;;;;2.45;53.22;95018.84;5031332;28;20041;-72
2023/02/01 08:18:40;;;;;;;19.65;10.63;;;;;;;2.22;53.38;95012.25;4998363;28;20534;-71
2023/02/01 08:21:06;;;;;;;12.77;8.38;;;;;;;2.44;53.37;95012.91;5014757;28;20034;-71
2023/02/01 08:23:33;;;;;;;3.97;3.10;;;;;;;2.55;52.77;95006.44;5031185;28;20025;-71
2023/02/01 08:26:11;;;;;;;8.20;3.90;;;;;;;2.52;52.46;94997.16;5014576;28;20045;-71
2023/02/01 08:28:37;;;;;;;17.65;9.85;;;;;;;2.63;52.62;95014.59;5015382;28;20040;-71
2023/02/01 08:31:08;;;;;;;10.25;6.50;;;;;;;2.62;51.90;94993.25;5032387;28;20060;-72
2023/02/01 08:33:34;;;;;;;18.42;11.52;;;;;;;2.67;52.31;95006.69;4998318;28;20029;-72
2023/02/01 08:36:01;;;;;;;14.00;8.85;;;;;;;2.69;52.88;95017.69;5032410;28;20042;-72
2023/02/01 08:38:27;;;;;;;9.23;5.60;;;;;;;2.86;51.78;95010.91;5030915;28;20034;-71
2023/02/01 08:40:52;;;;;;;9.93;6.18;;;;;;;2.88;51.96;95025.31;5030931;28;20044;-72
2023/02/01 08:43:18;;;;;;;24.25;13.48;;;;;;;2.88;51.39;95019.34;5014250;28;20033;-72
2023/02/01 08:45:44;;;;;;;40.17;16.45;;;;;;;2.93;51.16;95025.09;5031036;28;20025;-71
2023/02/01 08:48:09;;;;;;;21.60;10.32;;;;;;;2.97;50.88;95018.91;5014215;28;20407;-72
2023/02/01 08:50:34;;;;;;;20.45;11.75;;;;;;;2.95;51.39;95004.47;5031823;28;20025;-71
2023/02/01 08:53:00;;;;;;;19.63;10.40;;;;;;;2.96;51.20;95013.84;5030635;28;20026;-71
2023/02/01 08:55:26;;;;;;;15.02;6.43;;;;;;;2.94;52.01;94998.53;5014176;28;20030;-71
2023/02/01 08:57:51;;;;;;;32.50;16.48;;;;;;;3.07;51.03;95003.88;5030779;28;20037;-71
2023/02/01 09:00:17;;;;;;;20.23;13.13;;;;;;;3.09;50.70;95007.19;4997680;28;20560;-71
2023/02/01 09:02:43;;;;;;;10.32;8.35;;;;;;;3.05;50.93;95011.66;5014108;28;20128;-71
2023/02/01 09:05:09;;;;;;;7.70;3.58;;;;;;;3.09;50.76;95002.91;5014034;28;20442;-71
2023/02/01 09:07:34;;;;;;;5.22;3.47;;;;;;;3.21;50.84;95019.41;5013647;28;20065;-71
2023/02/01 09:10:00;;;;;;;6.25;4.47;;;;;;;3.12;50.09;94989.91;5030409;28;20056;-71
2023/02/01 09:12:30;;;;;;;6.25;3.58;;;;;;;3.49;49.79;95010.28;5030480;28;20040;-71
2023/02/01 09:14:56;;;;;;;7.60;4.40;;;;;;;3.28;50.48;95007.09;5014242;28;20040;-72
2023/02/01 09:17:22;;;;;;;12.25;7.57;;;;;;;3.41;50.03;95017.56;5030472;28;20042;-72
2023/02/01 09:19:48;;;;;;;13.75;7.90;;;;;;;3.35;50.32;95023.84;5013783;28;20080;-71
2023/02/01 09:22:15;;;;;;;21.10;12.45;;;;;;;3.50;50.21;95017.09;5013857;28;20033;-71
2023/02/01 09:24:40;;;;;;;19.85;15.15;;;;;;;3.71;49.90;95026.25;5030014;28;20045;-72
2023/02/01 09:27:06;;;;;;;9.02;6.20;;;;;;;3.72;49.96;95029.63;5031750;28;20068;-72
2023/02/01 09:29:31;;;;;;;6.60;3.65;;;;;;;3.62;49.59;95033.59;5031156;28;20075;-72
2023/02/01 09:31:57;;;;;;;17.95;12.38;;;;;;;3.57;49.51;95032.09;5013544;28;20030;-71
2023/02/01 09:34:22;;;;;;;7.28;5.65;;;;;;;3.57;49.97;95032.09;4997018;28;20026;-72
2023/02/01 09:36:48;;;;;;;6.93;3.15;;;;;;;3.33;50.10;95005.13;5013479;28;20048;-71
2023/02/01 09:39:13;;;;;;;7.78;3.47;;;;;;;3.20;50.56;95004.91;5031350;28;20079;-71
2023/02/01 09:41:42;;;;;;;6.78;4.20;;;;;;;3.56;50.24;95020.16;4997069;28;20033;-71
2023/02/01 09:44:10;;;;;;;7.72;3.97;;;;;;;3.75;49.58;95019.19;5013316;28;20035;-71
2023/02/01 09:46:36;;;;;;;6.05;3.70;;;;;;;3.78;49.81;95013.91;5030849;28;20041;-72
2023/02/01 09:49:04;;;;;;;4.70;3.45;;;;;;;3.88;49.96;94998.84;5030035;28;20071;-72
2023/02/01 09:51:43;;;;;;;6.32;3.90;;;;;;;3.95;49.35;94993.25;4997241;28;20033;-71
2023/02/01 09:54:25;;;;;;;4.85;3.15;;;;;;;3.85;49.76;94996.44;5013525;28;20032;-71
2023/02/01 09:57:13;;;;;;;8.15;4.72;;;;;;;3.87;48.50;94995.41;5029856;28;20045;-71
2023/02/01 09:59:47;;;;;;;6.05;3.72;;;;;;;3.74;48.23;94984.16;5029578;28;20018;-71
2023/02/01 10:02:15;;;;;;;9.68;3.83;;;;;;;3.83;48.36;94985.38;5030788;28;20037;-72
2023/02/01 10:04:41;;;;;;;7.13;4.95;;;;;;;3.93;48.18;94981.44;5013238;28;20108;-72
2023/02/01 10:07:38;;;;;;;5.15;3.38;;;;;;;3.85;48.99;94966.41;5013041;28;20052;-71
2023/02/01 10:10:29;;;;;;;4.78;2.40;;;;;;;4.05;48.48;94977.34;5045797;28;20388;-71
2023/02/01 10:13:13;;;;;;;16.10;11.63;;;;;;;4.12;47.71;94976.09;5013278;28;20056;-72
2023/02/01 10:15:52;;;;;;;7.18;4.43;;;;;;;4.03;48.03;94978.25;5030599;28;20036;-72
2023/02/01 10:18:36;;;;;;;8.30;5.30;;;;;;;4.10;47.72;94967.66;5013757;28;20436;-72
2023/02/01 10:21:16;;;;;;;12.02;6.53;;;;;;;4.18;47.49;94963.75;5034812;28;20034;-72
2023/02/01 10:24:03;;;;;;;6.07;4.18;;;;;;;4.33;47.30;94959.47;5033565;28;20029;-72
2023/02/01 10:26:32;;;;;;;5.03;3.30;;;;;;;4.39;46.99;94966.84;5034732;28;20103;-72
2023/02/01 10:29:00;;;;;;;5.80;3.63;;;;;;;4.66;46.80;94948.19;5017031;28;20037;-72
2023/02/01 10:31:26;;;;;;;5.15;2.53;;;;;;;4.79;46.73;94928.56;5000596;28;20146;-72
2023/02/01 10:33:59;;;;;;;5.15;2.70;;;;;;;4.80;46.20;94930.22;5016745;28;20495;-72
2023/02/01 10:36:30;;;;;;;4.05;2.38;;;;;;;5.03;46.21;94941.72;5016680;28;20048;-72
2023/02/01 10:38:58;;;;;;;8.10;5.60;;;;;;;5.19;45.54;94935.69;5033213;28;20105;-72
2023/02/01 10:41:24;;;;;;;5.60;3.20;;;;;;;5.10;45.95;94934.47;5016855;28;20495;-72
2023/02/01 10:43:54;;;;;;;11.02;9.77;;;;;;;5.44;44.62;94922.97;5016669;28;20033;-71
2023/02/01 10:46:21;;;;;;;8.20;4.03;;;;;;;5.64;43.69;94932.06;5016862;28;20033;-72
2023/02/01 10:48:47;;;;;;;4.82;2.15;;;;;;;5.70;43.81;94926.50;5000153;28;20396;-73
2023/02/01 10:51:16;;;;;;;4.82;2.20;;;;;;;5.59;43.96;94937.47;5016569;28;20099;-73
2023/02/01 10:53:53;;;;;;;10.75;6.10;;;;;;;5.89;43.15;94936.53;5016841;28;20029;-71
2023/02/01 10:56:23;;;;;;;3.95;2.30;;;;;;;6.01;43.14;94934.94;5032878;28;20048;-72
2023/02/01 10:58:49;;;;;;;6.30;2.42;;;;;;;6.08;42.58;94925.91;5000058;28;20030;-72
2023/02/01 11:01:31;;;;;;;5.30;3.60;;;;;;;6.35;42.27;94914.75;5034362;28;20045;-72
2023/02/01 11:04:00;;;;;;;5.53;2.75;;;;;;;6.49;42.10;94919.81;5032897;28;20041;-73
2023/02/01 11:06:36;;;;;;;6.18;3.28;;;;;;;6.58;42.20;94919.25;5032845;28;20467;-72
2023/02/01 11:09:08;;;;;;;5.47;3.53;;;;;;;6.68;42.52;94904.78;5000299;28;20414;-72
2023/02/01 11:11:33;;;;;;;;;;;;;;;6.70;41.37;94926.19;5034499;28;20076;-72
2023/02/01 11:14:00;;;;;;;2.70;1.73;;;;;;;6.48;41.44;94903.53;5033773;28;19917;-72
2023/02/01 11:16:34;;;;;;;5.45;3.03;;;;;;;6.62;41.47;94925.03;5016267;28;20098;-72
2023/02/01 11:19:00;;;;;;;6.72;4.03;;;;;;;6.54;41.27;94917.78;5032604;28;20108;-72
2023/02/01 11:21:25;;;;;;;4.22;2.60;;;;;;;6.45;41.22;94913.22;5032471;28;20036;-73
2023/02/01 11:23:51;;;;;;;7.55;3.55;;;;;;;6.47;41.36;94921.72;5032418;28;20045;-73
2023/02/01 11:26:24;;;;;;;5.43;3.30;;;;;;;6.52;41.07;94901.59;5032183;28;20605;-73
2023/02/01 11:29:03;;;;;;;6.32;3.15;;;;;;;6.57;41.18;94884.03;5015899;28;20033;-73
2023/02/01 11:31:29;;;;;;;3.95;1.80;;;;;;;6.68;41.37;94915.13;5015833;28;20100;-73
2023/02/01 11:33:58;;;;;;;4.70;2.22;;;;;;;6.70;41.10;94908.09;5032169;28;20152;-73
2023/02/01 11:36:27;;;;;;;3.85;2.30;;;;;;;6.83;40.66;94897.81;4999263;28;20042;-73
2023/02/01 11:38:54;;;;;;;4.18;2.00;;;;;;;6.82;41.44;94905.63;5015886;28;20112;-73
2023/02/01 11:41:27;;;;;;;2.95;1.70;;;;;;;6.87;41.20;94906.16;5015712;28;20073;-73
2023/02/01 11:44:01;;;;;;;3.55;2.20;;;;;;;6.91;40.38;94910.22;5031863;28;20533;-73
2023/02/01 11:46:32;;;;;;;5.80;2.58;;;;;;;6.84;41.12;94914.94;5015881;28;20042;-73
2023/02/01 11:49:12;;;;;;;4.00;1.75;;;;;;;6.63;39.91;94908.59;4999147;28;20048;-73
2023/02/01 11:51:47;;;;;;;5.50;2.83;;;;;;;6.85;40.36;94895.09;5000998;28;20040;-73
2023/02/01 11:54:47;;;;;;;5.03;2.38;;;;;;;6.69;40.36;94905.66;5015964;28;20099;-73
2023/02/01 11:57:17;;;;;;;5.13;2.42;;;;;;;6.79;40.38;94885.19;5033388;28;20112;-74
2023/02/01 12:00:03;;;;;;;3.45;1.88;;;;;;;6.84;40.71;94885.72;5032066;28;20112;-73
2023/02/01 12:03:05;;;;;;;3.70;1.95;;;;;;;6.83;40.25;94890.06;5032816;28;20056;-73
2023/02/01 12:05:47;;;;;;;5.40;2.67;;;;;;;6.63;41.13;94854.41;5031414;28;20056;-73
2023/02/01 12:08:38;;;;;;;5.32;2.67;;;;;;;6.62;40.87;94865.66;5000197;28;20032;-73
2023/02/01 12:11:07;;;;;;;8.25;4.60;;;;;;;6.77;41.44;94866.38;5031867;28;20061;-73
2023/02/01 12:14:01;;;;;;;4.03;2.25;;;;;;;6.81;40.63;94873.84;5032583;28;20025;-73